CheckWX is a tool to help pilots better visualize weather data.  It is not intended as a substitute for an official pre-flight weather briefing.

12:26:38 UTC

VTSS TAF
Hat Yai International Airport
Hat Yai, Thailand
TAF VTSS 221100Z 2212/2312 05005KT 9999 FEW020

Mar-22@
12:00 UTC

Mar-22 @ 12:00 UTC

Mar-23@
12:00 UTC

Mar-23 @ 12:00 UTC

TAF VTSS 221100Z 2212/2312 05005KT 9999 FEW020
Wind
  • 050° at 5 KTS
Cloud Levels
  • Few at 2,000' AGL